الصفحة الرئيسية
METAR-TAF:

METAR-TAF

مطار :

والس, فرنسا

دائرة عرض: 13-14S, خط طول: 176-10W, ارتفاع: 23 متر

METAR: مفقودة

زمن: 13:56 (01:56 UTC)

توقعات

تاريخ ووقت الإصدار 2ساعات و 56 دقيقة قبل الساعة 23:00UTC
التوقعات صالحة من24 الساعة 00 UTC إلى 24 الساعة 24 UTC
ريح 10 عقدة من الشرق
الرؤية 10 كم أو أكثر
غيوم متفرقة على ارتفاع 1800 قدم
غيوم مفككة على ارتفاع 4500 قدم
مؤقت
من 24 الساعة 00 UTC إلى 24 الساعة 24 UTC
غيوم قليلة على ارتفاع 2000 قدم, مزن ركامية عمودية.
زخات من المطر
نظرية الاحتمالات 30% :
مؤقت
من 24 الساعة 00 UTC إلى 24 الساعة 06 UTC
الرؤية: 2500 متر
غيوم مفككة على ارتفاع 1200 قدم
غيوم قليلة على ارتفاع 1600 قدم, مزنة ركامية.
زخات من المطر
مؤقت
من 24 الساعة 18 UTC إلى 24 الساعة 24 UTC
الرؤية: 4000 متر
غيوم قليلة على ارتفاع 1800 قدم, مزن ركامية عمودية.
زخات من المطر

TAF: NLWW 232300Z 2400/2424 09010KT 9999 SCT018 BKN045 TEMPO 2400/2424 SHRA FEW020TCU PROB30 TEMPO 2400/2406 2500 SHRA BKN012 FEW016CB TEMPO 2418/2424 4000 SHRA FEW018TCU

أرصاد الطقس والتوقعات من أكثر من 4000 مطار (تقارير الطقس للمطار METAR والتنبؤ بالطقس بالمطارTAF).

المحطات المتاحة هي النقط الصفراء والحمراء على الخريطة.

حرك المؤشر فوق النقطة لمعرفة اسم المحطة.

ثم انقر لمعرفة أرصاد وتوقعات الطقس.

لتغيير الخارطة: اضغط على الأزرار الخضراء مع رمز الصليب الأسود للتكبير. على الزر الأخضر مع شرطة للتصغير، أو على الأسهم الخضراء للخرائط المجاورة.


METAR-TAF: